createdAt,value
2023-03-06T00:02:03.620Z,6.20
2023-03-06T00:04:25.334Z,6.57
2023-03-06T00:06:46.934Z,7.03
2023-03-06T00:09:09.803Z,7.83
2023-03-06T00:11:31.434Z,6.33
2023-03-06T00:13:53.164Z,7.23
2023-03-06T00:16:15.007Z,6.40
2023-03-06T00:18:36.577Z,6.87
2023-03-06T00:20:58.227Z,8.67
2023-03-06T00:23:19.890Z,6.30
2023-03-06T00:25:46.043Z,7.10
2023-03-06T00:28:07.666Z,7.13
2023-03-06T00:30:29.482Z,6.60
2023-03-06T00:32:53.438Z,8.27
2023-03-06T00:35:16.520Z,6.18
2023-03-06T00:37:39.746Z,9.35
2023-03-06T00:40:01.685Z,7.73
2023-03-06T00:42:23.288Z,6.63
2023-03-06T00:44:47.248Z,10.87
2023-03-06T00:47:08.982Z,8.13
2023-03-06T00:49:30.582Z,8.27
2023-03-06T00:51:52.350Z,8.00
2023-03-06T00:54:13.944Z,9.13
2023-03-06T00:56:35.567Z,8.50
2023-03-06T00:58:57.224Z,10.70
2023-03-06T01:01:20.373Z,8.77
2023-03-06T01:03:41.994Z,9.50
2023-03-06T01:06:03.872Z,11.30
2023-03-06T01:08:25.548Z,10.93
2023-03-06T01:10:50.892Z,12.77
2023-03-06T01:13:12.504Z,22.53
2023-03-06T01:15:34.264Z,13.17
2023-03-06T01:17:55.937Z,11.77
2023-03-06T01:20:18.415Z,14.37
2023-03-06T01:22:40.053Z,14.43
2023-03-06T01:25:01.773Z,14.87
2023-03-06T01:27:23.373Z,14.10
2023-03-06T01:29:44.985Z,12.67
2023-03-06T01:32:07.136Z,13.70
2023-03-06T01:34:28.791Z,11.53
2023-03-06T01:36:50.479Z,11.73
2023-03-06T01:39:12.221Z,14.30
2023-03-06T01:41:33.911Z,10.33
2023-03-06T01:43:56.241Z,11.97
2023-03-06T01:46:28.746Z,11.87
2023-03-06T01:49:05.545Z,11.50
2023-03-06T01:51:35.439Z,11.30
2023-03-06T01:54:05.155Z,11.50
2023-03-06T01:56:27.298Z,10.07
2023-03-06T01:58:49.693Z,10.23
2023-03-06T02:01:14.575Z,8.90
2023-03-06T02:03:36.630Z,9.80
2023-03-06T02:06:00.242Z,11.00
2023-03-06T02:08:24.027Z,11.53
2023-03-06T02:11:10.549Z,9.90
2023-03-06T02:13:32.488Z,8.67
2023-03-06T02:15:54.259Z,10.10
2023-03-06T02:18:15.918Z,10.70
2023-03-06T02:20:48.615Z,9.50
2023-03-06T02:23:34.033Z,11.33
2023-03-06T02:25:57.582Z,9.15
2023-03-06T02:28:23.059Z,11.65
2023-03-06T02:30:47.327Z,10.13
2023-03-06T02:33:19.962Z,8.73
2023-03-06T02:35:51.578Z,11.07
2023-03-06T02:38:20.207Z,13.00
2023-03-06T02:40:46.883Z,11.13
2023-03-06T02:43:10.337Z,11.53
2023-03-06T02:45:42.561Z,12.88
2023-03-06T02:48:05.076Z,12.00
2023-03-06T02:50:26.794Z,11.77
2023-03-06T02:52:48.476Z,13.07
2023-03-06T02:55:10.382Z,16.27
2023-03-06T02:57:32.124Z,14.80
2023-03-06T02:59:56.005Z,12.03
2023-03-06T03:02:17.957Z,12.27
2023-03-06T03:04:39.710Z,14.40
2023-03-06T03:07:01.867Z,14.90
2023-03-06T03:09:23.630Z,14.07
2023-03-06T03:11:45.221Z,15.23
2023-03-06T03:14:07.048Z,14.23
2023-03-06T03:16:28.759Z,14.47
2023-03-06T03:18:53.231Z,14.27
2023-03-06T03:21:17.983Z,16.40
2023-03-06T03:23:41.691Z,15.90
2023-03-06T03:26:10.241Z,15.33
2023-03-06T03:28:35.006Z,13.77
2023-03-06T03:31:01.898Z,13.57
2023-03-06T03:33:23.807Z,16.47
2023-03-06T03:35:45.456Z,16.73
2023-03-06T03:38:07.202Z,14.63
2023-03-06T03:40:29.344Z,15.30
2023-03-06T03:42:53.148Z,13.18
2023-03-06T03:45:15.479Z,15.10
2023-03-06T03:47:37.752Z,17.17
2023-03-06T03:50:00.696Z,16.30
2023-03-06T03:52:22.412Z,14.00
2023-03-06T03:54:44.082Z,15.80
2023-03-06T03:57:06.005Z,17.37
2023-03-06T03:59:31.072Z,14.17
2023-03-06T04:02:04.885Z,14.97
2023-03-06T04:04:31.320Z,14.13
2023-03-06T04:06:52.973Z,16.27
2023-03-06T04:09:14.969Z,17.93
2023-03-06T04:11:37.069Z,17.77
2023-03-06T04:13:58.752Z,16.80
2023-03-06T04:16:20.831Z,15.00
2023-03-06T04:18:43.958Z,18.50
2023-03-06T04:21:06.028Z,15.20
2023-03-06T04:23:28.438Z,21.40
2023-03-06T04:25:51.452Z,17.93
2023-03-06T04:28:14.459Z,18.83
2023-03-06T04:30:36.341Z,18.13
2023-03-06T04:32:58.514Z,16.77
2023-03-06T04:35:20.441Z,16.70
2023-03-06T04:37:50.662Z,18.90
2023-03-06T04:40:20.220Z,18.50
2023-03-06T04:42:41.802Z,19.10
2023-03-06T04:45:03.675Z,19.10
2023-03-06T04:47:25.345Z,17.77
2023-03-06T04:49:46.951Z,17.70
2023-03-06T04:52:08.691Z,17.10
2023-03-06T04:54:30.676Z,17.13
2023-03-06T04:56:52.209Z,18.47
2023-03-06T04:59:13.826Z,18.23
2023-03-06T05:01:35.539Z,18.57
2023-03-06T05:03:57.150Z,16.47
2023-03-06T05:06:18.756Z,15.50
2023-03-06T05:08:40.380Z,21.27
2023-03-06T05:11:03.560Z,16.80
2023-03-06T05:13:26.645Z,17.17
2023-03-06T05:15:48.251Z,16.77
2023-03-06T05:18:10.011Z,18.47
2023-03-06T05:20:32.145Z,17.47
2023-03-06T05:22:53.726Z,16.23
2023-03-06T05:25:15.468Z,16.13
2023-03-06T05:27:38.175Z,15.30
2023-03-06T05:29:59.838Z,14.13
2023-03-06T05:32:22.929Z,15.73
2023-03-06T05:34:44.588Z,15.30
2023-03-06T05:37:06.287Z,15.10
2023-03-06T05:39:30.198Z,18.53
2023-03-06T05:41:51.771Z,18.33
2023-03-06T05:44:13.370Z,17.50
2023-03-06T05:46:35.042Z,17.40
2023-03-06T05:48:57.853Z,14.87
2023-03-06T05:51:19.506Z,17.03
2023-03-06T05:53:41.261Z,16.87
2023-03-06T05:56:08.753Z,17.20
2023-03-06T05:58:34.419Z,18.30
2023-03-06T06:00:56.404Z,21.33
2023-03-06T06:03:19.296Z,18.10
2023-03-06T06:05:40.912Z,17.33
2023-03-06T06:08:02.550Z,16.50
2023-03-06T06:10:24.197Z,21.53
2023-03-06T06:12:45.841Z,21.13
2023-03-06T06:15:08.102Z,19.27
2023-03-06T06:17:31.371Z,20.77
2023-03-06T06:19:52.984Z,21.47
2023-03-06T06:22:14.571Z,20.23
2023-03-06T06:24:36.218Z,21.90
2023-03-06T06:27:01.472Z,21.47
2023-03-06T06:29:26.921Z,23.07
2023-03-06T06:31:49.018Z,23.40
2023-03-06T06:34:12.759Z,22.37
2023-03-06T06:36:34.518Z,23.47
2023-03-06T06:38:56.362Z,22.30
2023-03-06T06:44:00.447Z,26.90
2023-03-06T06:47:02.647Z,24.50
2023-03-06T06:49:04.221Z,26.00
2023-03-06T06:51:25.917Z,27.93
2023-03-06T06:53:47.582Z,25.60
2023-03-06T06:56:09.140Z,29.33
2023-03-06T06:58:30.729Z,26.07
2023-03-06T07:00:53.011Z,30.43
2023-03-06T07:03:15.034Z,27.27
2023-03-06T07:05:36.602Z,27.10
2023-03-06T07:07:59.034Z,27.27
2023-03-06T07:10:21.210Z,26.77
2023-03-06T07:12:43.062Z,26.90
2023-03-06T07:15:08.041Z,26.00
2023-03-06T07:17:29.724Z,23.20
2023-03-06T07:19:51.356Z,24.90
2023-03-06T07:22:14.097Z,28.97
2023-03-06T07:24:35.756Z,25.97
2023-03-06T07:26:57.761Z,25.70
2023-03-06T07:29:20.245Z,25.13
2023-03-06T07:31:42.341Z,24.53
2023-03-06T07:34:05.092Z,25.03
2023-03-06T07:36:26.916Z,23.27
2023-03-06T07:38:48.912Z,24.90
2023-03-06T07:41:13.814Z,23.77
2023-03-06T07:43:35.482Z,24.00
2023-03-06T07:46:00.585Z,21.70
2023-03-06T07:48:22.298Z,25.70
2023-03-06T07:50:43.994Z,22.17
2023-03-06T07:53:05.674Z,23.63
2023-03-06T07:55:27.293Z,31.73
2023-03-06T07:57:51.635Z,24.90
2023-03-06T08:00:15.803Z,25.58
2023-03-06T08:02:37.448Z,26.77
2023-03-06T08:04:59.128Z,26.70
2023-03-06T08:07:22.165Z,25.13
2023-03-06T08:09:43.851Z,28.10
2023-03-06T08:12:05.897Z,24.43
2023-03-06T08:14:27.870Z,25.60
2023-03-06T08:16:51.141Z,23.03
2023-03-06T08:19:12.787Z,26.57
2023-03-06T08:21:34.616Z,23.83
2023-03-06T08:23:56.670Z,23.53
2023-03-06T08:26:23.054Z,24.03
2023-03-06T08:28:45.443Z,23.70
2023-03-06T08:31:09.407Z,22.40
2023-03-06T08:33:30.972Z,24.58
2023-03-06T08:35:52.785Z,22.67
2023-03-06T08:38:15.028Z,20.80
2023-03-06T08:40:36.631Z,23.73
2023-03-06T08:42:58.280Z,18.47
2023-03-06T08:45:19.906Z,20.00
2023-03-06T08:47:41.490Z,19.43
2023-03-06T08:50:03.930Z,19.30
2023-03-06T08:52:25.647Z,20.87
2023-03-06T08:54:47.292Z,20.27
2023-03-06T08:57:09.211Z,19.43
2023-03-06T08:59:31.663Z,18.40
2023-03-06T09:01:53.359Z,15.00
2023-03-06T09:04:15.009Z,14.03
2023-03-06T09:06:41.444Z,16.20
2023-03-06T09:09:04.712Z,13.90
2023-03-06T09:11:28.184Z,17.10
2023-03-06T09:13:50.454Z,14.35
2023-03-06T09:16:12.501Z,12.40
2023-03-06T09:18:34.278Z,12.10
2023-03-06T09:20:56.324Z,7.83
2023-03-06T09:23:18.008Z,8.90
2023-03-06T09:25:39.606Z,8.60
2023-03-06T09:28:10.895Z,7.40
2023-03-06T09:30:33.503Z,6.97
2023-03-06T09:32:55.153Z,6.20
2023-03-06T09:35:18.726Z,8.07
2023-03-06T09:37:41.920Z,6.63
2023-03-06T09:40:06.392Z,5.60
2023-03-06T09:45:02.245Z,8.67
2023-03-06T09:47:51.870Z,6.83
2023-03-06T09:50:33.890Z,4.77
2023-03-06T09:53:34.109Z,4.73
2023-03-06T09:56:05.954Z,5.03
2023-03-06T09:58:30.834Z,3.53
2023-03-06T10:01:03.447Z,4.13
2023-03-06T10:03:34.236Z,3.77
2023-03-06T10:06:04.061Z,3.53
2023-03-06T10:09:07.186Z,3.53
2023-03-06T10:11:52.676Z,3.77
2023-03-06T10:14:20.343Z,3.03
2023-03-06T10:16:42.471Z,2.17
2023-03-06T10:19:17.256Z,3.27
2023-03-06T10:24:42.416Z,3.67
2023-03-06T10:27:40.487Z,2.67
2023-03-06T10:30:51.556Z,2.20
2023-03-06T10:33:46.997Z,2.27
2023-03-06T10:36:15.987Z,2.67
2023-03-06T10:38:38.308Z,2.03
2023-03-06T10:41:12.266Z,2.60
2023-03-06T10:43:36.659Z,3.40
2023-03-06T10:48:27.447Z,2.10
2023-03-06T10:50:49.553Z,3.10
2023-03-06T10:53:29.185Z,2.50
2023-03-06T10:55:58.876Z,2.10
2023-03-06T10:58:32.800Z,2.10
2023-03-06T11:01:22.381Z,2.70
2023-03-06T11:03:45.514Z,2.60
2023-03-06T11:06:13.490Z,1.70
2023-03-06T11:08:36.229Z,2.17
2023-03-06T11:11:05.549Z,3.27
2023-03-06T11:13:32.022Z,2.10
2023-03-06T11:16:07.284Z,2.10
2023-03-06T11:18:41.287Z,4.20
2023-03-06T11:21:23.104Z,3.30
2023-03-06T11:23:47.342Z,2.30
2023-03-06T11:26:20.038Z,3.15
2023-03-06T11:28:50.916Z,3.87
2023-03-06T11:31:22.465Z,3.50
2023-03-06T11:33:59.247Z,4.33
2023-03-06T11:37:01.516Z,2.10
2023-03-06T11:39:43.765Z,2.00
2023-03-06T11:42:10.331Z,4.20
2023-03-06T11:45:22.943Z,4.93
2023-03-06T11:47:57.744Z,3.33
2023-03-06T11:53:07.336Z,3.43
2023-03-06T11:55:44.777Z,3.23
2023-03-06T11:58:39.662Z,4.00
2023-03-06T12:01:13.010Z,2.77
2023-03-06T12:04:17.903Z,2.80
2023-03-06T12:06:45.454Z,2.87
2023-03-06T12:09:13.130Z,2.60
2023-03-06T12:11:58.988Z,3.13
2023-03-06T12:14:52.583Z,4.97
2023-03-06T12:17:35.534Z,3.53
2023-03-06T12:20:39.692Z,3.83
2023-03-06T12:23:29.919Z,4.73
2023-03-06T12:26:20.672Z,4.17
2023-03-06T12:29:11.546Z,3.93
2023-03-06T12:31:59.300Z,3.60
2023-03-06T12:34:52.380Z,5.40
2023-03-06T12:38:14.746Z,3.03
2023-03-06T12:41:31.742Z,3.60
2023-03-06T12:44:40.494Z,4.70
2023-03-06T12:47:09.220Z,3.73
2023-03-06T12:49:38.666Z,3.67
2023-03-06T12:52:04.965Z,3.90
2023-03-06T12:54:33.488Z,3.33
2023-03-06T12:56:59.797Z,4.97
2023-03-06T12:59:47.222Z,3.90
2023-03-06T13:02:54.765Z,4.00
2023-03-06T13:06:01.408Z,5.20
2023-03-06T13:09:07.238Z,6.17
2023-03-06T13:12:06.075Z,7.23
2023-03-06T13:14:34.267Z,7.27
2023-03-06T13:17:22.998Z,8.13
2023-03-06T13:19:44.664Z,8.10
2023-03-06T13:22:29.331Z,10.63
2023-03-06T13:25:16.714Z,7.80
2023-03-06T13:27:53.618Z,9.80
2023-03-06T13:30:28.429Z,9.23
2023-03-06T13:32:55.374Z,9.30
2023-03-06T13:35:32.330Z,11.13
2023-03-06T13:37:54.545Z,11.30
2023-03-06T13:40:33.609Z,14.50
2023-03-06T13:43:21.394Z,8.97
2023-03-06T13:45:47.081Z,11.00
2023-03-06T13:48:44.637Z,9.30
2023-03-06T13:51:28.042Z,10.10
2023-03-06T13:54:20.631Z,9.90
2023-03-06T13:57:17.344Z,10.13
2023-03-06T14:00:18.999Z,10.67
2023-03-06T14:03:27.643Z,12.50
2023-03-06T14:05:51.985Z,13.47
2023-03-06T14:08:24.680Z,12.30
2023-03-06T14:10:59.219Z,9.90
2023-03-06T14:13:45.341Z,10.18
2023-03-06T14:16:22.976Z,9.43
2023-03-06T14:18:49.576Z,12.77
2023-03-06T14:21:14.484Z,9.53
2023-03-06T14:23:42.400Z,9.77
2023-03-06T14:26:23.926Z,11.77
2023-03-06T14:29:01.213Z,11.60
2023-03-06T14:31:27.712Z,10.77
2023-03-06T14:34:19.279Z,11.93
2023-03-06T14:36:48.563Z,10.77
2023-03-06T14:39:33.969Z,11.00
2023-03-06T14:42:06.046Z,9.17
2023-03-06T14:44:27.800Z,10.37
2023-03-06T14:46:56.468Z,8.87
2023-03-06T14:49:21.075Z,8.80
2023-03-06T14:51:47.734Z,8.43
2023-03-06T14:54:27.937Z,10.50
2023-03-06T14:56:58.669Z,9.03
2023-03-06T14:59:30.465Z,9.43
2023-03-06T15:02:02.697Z,11.63
2023-03-06T15:04:39.362Z,10.13
2023-03-06T15:07:01.472Z,9.40
2023-03-06T15:09:36.703Z,12.00
2023-03-06T15:12:01.267Z,12.97
2023-03-06T15:14:59.547Z,12.43
2023-03-06T15:17:29.852Z,13.90
2023-03-06T15:19:58.722Z,11.30
2023-03-06T15:22:44.100Z,12.57
2023-03-06T15:25:20.108Z,13.63
2023-03-06T15:27:50.195Z,10.43
2023-03-06T15:30:36.879Z,8.30
2023-03-06T15:33:19.711Z,8.83
2023-03-06T15:36:01.996Z,13.03
2023-03-06T15:38:44.281Z,13.63
2023-03-06T15:41:20.730Z,13.63
2023-03-06T15:43:42.441Z,12.63
2023-03-06T15:46:07.646Z,10.93
2023-03-06T15:48:29.361Z,17.07
2023-03-06T15:50:51.095Z,14.20
2023-03-06T15:53:12.733Z,16.97
2023-03-06T15:55:34.418Z,16.47
2023-03-06T15:58:02.052Z,18.00
2023-03-06T16:00:32.404Z,18.83
2023-03-06T16:02:58.536Z,20.07
2023-03-06T16:05:21.682Z,18.20
2023-03-06T16:07:43.829Z,20.17
2023-03-06T16:10:05.777Z,19.93
2023-03-06T16:12:30.733Z,19.70
2023-03-06T16:14:52.498Z,20.73
2023-03-06T16:17:15.580Z,19.90
2023-03-06T16:19:37.186Z,21.17
2023-03-06T16:21:59.232Z,23.40
2023-03-06T16:24:21.027Z,23.87
2023-03-06T16:26:47.112Z,23.57
2023-03-06T16:29:17.766Z,26.33
2023-03-06T16:31:39.424Z,26.30
2023-03-06T16:34:01.065Z,24.77
2023-03-06T16:36:27.156Z,26.73
2023-03-06T16:38:50.292Z,25.93
2023-03-06T16:41:11.931Z,26.53
2023-03-06T16:43:33.658Z,26.80
2023-03-06T16:45:55.644Z,27.00
2023-03-06T16:48:17.387Z,25.90
2023-03-06T16:50:40.545Z,27.40
2023-03-06T16:53:02.273Z,27.10
2023-03-06T16:55:26.860Z,27.53
2023-03-06T16:57:49.096Z,28.63
2023-03-06T17:00:12.115Z,31.50
2023-03-06T17:02:33.977Z,29.60
2023-03-06T17:04:55.839Z,28.93
2023-03-06T17:07:17.443Z,29.63
2023-03-06T17:09:39.085Z,30.87
2023-03-06T17:12:00.701Z,29.53
2023-03-06T17:14:22.316Z,29.00
2023-03-06T17:16:44.001Z,31.60
2023-03-06T17:19:06.887Z,29.73
2023-03-06T17:21:30.150Z,30.17
2023-03-06T17:23:51.844Z,31.17
2023-03-06T17:26:18.820Z,31.40
2023-03-06T17:28:41.891Z,32.63
2023-03-06T17:31:17.226Z,31.57
2023-03-06T17:33:39.044Z,35.00
2023-03-06T17:36:01.172Z,31.87
2023-03-06T17:38:22.872Z,31.37
2023-03-06T17:40:44.554Z,31.80
2023-03-06T17:43:06.139Z,33.93
2023-03-06T17:45:29.496Z,31.47
2023-03-06T17:47:54.414Z,28.00
2023-03-06T17:50:16.303Z,29.37
2023-03-06T17:52:38.968Z,35.27
2023-03-06T17:55:00.705Z,32.93
2023-03-06T17:57:22.309Z,29.83
2023-03-06T17:59:48.461Z,33.23
2023-03-06T18:02:11.260Z,32.67
2023-03-06T18:04:32.857Z,36.50
2023-03-06T18:06:54.666Z,29.47
2023-03-06T18:09:16.400Z,33.87
2023-03-06T18:11:39.170Z,35.23
2023-03-06T18:14:00.741Z,36.90
2023-03-06T18:16:25.960Z,38.20
2023-03-06T18:18:47.794Z,35.90
2023-03-06T18:21:13.553Z,35.77
2023-03-06T18:23:36.535Z,38.27
2023-03-06T18:26:15.673Z,38.13
2023-03-06T18:28:44.655Z,39.73
2023-03-06T18:31:14.165Z,35.77
2023-03-06T18:33:35.826Z,38.13
2023-03-06T18:36:02.865Z,37.80
2023-03-06T18:38:24.494Z,34.53
2023-03-06T18:40:46.211Z,34.63
2023-03-06T18:43:07.967Z,34.83
2023-03-06T18:45:29.688Z,36.17
2023-03-06T18:47:51.350Z,34.20
2023-03-06T18:50:17.421Z,33.37
2023-03-06T18:52:39.137Z,32.57
2023-03-06T18:55:00.836Z,34.47
2023-03-06T18:57:22.577Z,35.47
2023-03-06T18:59:44.347Z,34.83
2023-03-06T19:02:06.773Z,33.23
2023-03-06T19:04:28.538Z,32.80
2023-03-06T19:06:51.372Z,33.03
2023-03-06T19:09:13.007Z,34.07
2023-03-06T19:11:34.979Z,31.43
2023-03-06T19:13:56.666Z,31.47
2023-03-06T19:16:25.590Z,33.43
2023-03-06T19:18:47.590Z,31.57
2023-03-06T19:21:14.893Z,32.63
2023-03-06T19:23:37.058Z,32.30
2023-03-06T19:26:00.424Z,29.73
2023-03-06T19:28:22.124Z,28.87
2023-03-06T19:30:43.726Z,28.23
2023-03-06T19:33:05.331Z,29.93
2023-03-06T19:35:27.600Z,28.23
2023-03-06T19:37:49.605Z,31.13
2023-03-06T19:40:12.756Z,28.70
2023-03-06T19:42:34.440Z,30.17
2023-03-06T19:44:56.121Z,29.27
2023-03-06T19:47:17.747Z,28.27
2023-03-06T19:49:40.613Z,26.83
2023-03-06T19:52:02.371Z,28.23
2023-03-06T19:54:25.515Z,24.00
2023-03-06T19:56:47.204Z,27.13
2023-03-06T19:59:08.840Z,28.27
2023-03-06T20:01:30.862Z,28.97
2023-03-06T20:03:59.055Z,27.93
2023-03-06T20:06:22.282Z,24.73
2023-03-06T20:08:45.900Z,28.70
2023-03-06T20:11:22.278Z,26.17
2023-03-06T20:13:47.302Z,29.00
2023-03-06T20:16:09.289Z,28.93
2023-03-06T20:18:31.070Z,29.80
2023-03-06T20:21:03.835Z,29.17
2023-03-06T20:23:26.306Z,29.30
2023-03-06T20:25:47.952Z,30.53
2023-03-06T20:28:09.570Z,29.73
2023-03-06T20:30:37.724Z,29.73
2023-03-06T20:32:59.981Z,29.17
2023-03-06T20:35:22.726Z,29.07
2023-03-06T20:37:44.546Z,30.10
2023-03-06T20:40:08.348Z,29.83
2023-03-06T20:42:30.157Z,30.63
2023-03-06T20:44:51.791Z,33.57
2023-03-06T20:47:13.514Z,31.33
2023-03-06T20:49:36.552Z,31.83
2023-03-06T20:51:58.247Z,34.30
2023-03-06T20:54:20.078Z,30.57
2023-03-06T20:56:46.903Z,33.60
2023-03-06T20:59:12.155Z,30.67
2023-03-06T21:01:41.557Z,30.00
2023-03-06T21:04:06.786Z,32.50
2023-03-06T21:06:29.343Z,33.50
2023-03-06T21:08:51.316Z,31.80
2023-03-06T21:11:13.569Z,30.60
2023-03-06T21:13:35.288Z,31.63
2023-03-06T21:15:56.985Z,33.70
2023-03-06T21:18:18.917Z,31.47
2023-03-06T21:20:42.248Z,33.13
2023-03-06T21:23:04.322Z,34.40
2023-03-06T21:25:25.970Z,31.63
2023-03-06T21:27:47.796Z,33.47
2023-03-06T21:30:10.512Z,33.63
2023-03-06T21:32:33.147Z,32.70
2023-03-06T21:34:54.846Z,32.93
2023-03-06T21:37:16.523Z,32.63
2023-03-06T21:39:38.533Z,31.13
2023-03-06T21:42:00.281Z,33.57
2023-03-06T21:44:22.482Z,33.83
2023-03-06T21:46:44.090Z,33.33
2023-03-06T21:49:05.836Z,34.47
2023-03-06T21:51:27.560Z,34.57
2023-03-06T21:53:50.266Z,34.60
2023-03-06T21:56:14.460Z,34.47
2023-03-06T21:58:36.562Z,32.40
2023-03-06T22:00:58.483Z,33.87
2023-03-06T22:03:21.108Z,34.20
2023-03-06T22:05:43.291Z,34.73
2023-03-06T22:08:05.018Z,31.70
2023-03-06T22:10:26.710Z,32.80
2023-03-06T22:12:48.492Z,30.97
2023-03-06T22:15:10.506Z,33.67
2023-03-06T22:17:32.864Z,29.20
2023-03-06T22:19:54.590Z,30.90
2023-03-06T22:22:16.260Z,33.33
2023-03-06T22:24:38.042Z,29.77
2023-03-06T22:26:59.778Z,28.70
2023-03-06T22:29:21.440Z,25.80
2023-03-06T22:31:43.187Z,28.83
2023-03-06T22:34:04.949Z,30.07
2023-03-06T22:36:30.633Z,28.63
2023-03-06T22:39:00.119Z,28.17
2023-03-06T22:41:22.501Z,25.23
2023-03-06T22:43:44.288Z,26.20
2023-03-06T22:46:15.474Z,24.27
2023-03-06T22:48:37.414Z,26.40
2023-03-06T22:51:14.606Z,26.10
2023-03-06T22:53:37.540Z,25.73
2023-03-06T22:56:02.054Z,25.20
2023-03-06T23:00:47.332Z,21.73
2023-03-06T23:03:08.964Z,22.52
2023-03-06T23:05:30.639Z,21.03
2023-03-06T23:07:52.286Z,20.83
2023-03-06T23:10:13.898Z,18.47
2023-03-06T23:12:54.265Z,19.00
2023-03-06T23:15:35.773Z,19.53
2023-03-06T23:18:15.801Z,18.83
2023-03-06T23:20:56.238Z,16.60
2023-03-06T23:23:39.048Z,18.97
2023-03-06T23:26:01.451Z,15.88
2023-03-06T23:28:23.137Z,16.40
2023-03-06T23:30:44.962Z,15.20
2023-03-06T23:33:07.066Z,15.87
2023-03-06T23:35:28.791Z,14.80
2023-03-06T23:37:50.446Z,14.53
2023-03-06T23:40:13.711Z,13.27
2023-03-06T23:42:35.416Z,13.27
2023-03-06T23:44:57.066Z,11.83
2023-03-06T23:47:20.053Z,12.67
2023-03-06T23:49:41.778Z,11.47
2023-03-06T23:52:04.391Z,9.30
2023-03-06T23:54:26.064Z,8.73
2023-03-06T23:56:47.671Z,6.70
2023-03-06T23:59:11.374Z,6.90
